TFM - Tactical Decision Aid
ID: Runway Winds: CIG/VIS Threshold:

KMIA - Miami Intl, FL, US

Updated at: 2140 UTC 17 Jun 2019
Latest TAF at: 2114 UTC 17 Jun 2019

TAF Board

Time2053Z 17/22Z 17/23Z 18/00Z 18/01Z 18/02Z 18/03Z 18/04Z 18/05Z 18/06Z 18/07Z 18/08Z 18/09Z 18/10Z>>
Type OBS PRVL PRVL PRVL PRVL PRVL PRVL PRVL PRVL PRVL PRVL PRVL PRVL PRVL
VIS 10 >6 >6 >6 >6 >6 >6 >6 >6 >6 >6 >6 >6 >6
CIG 180 150 150 150 150 150 150 150 150 150 150 150 50 50
Cover OVC BKN BKN BKN BKN BKN BKN BKN BKN BKN BKN BKN BKN BKN
FltCat VFR VFR VFR VFR VFR VFR VFR VFR VFR VFR VFR VFR VFR VFR
WX -- VCSH VCSH VCSH VCSH VCSH VCSH VCSH VCSH VCSH VCSH VCSH VCTS VCTS
WDir 330 VRB VRB VRB VRB VRB VRB VRB VRB VRB VRB VRB 150 150
WSpd 3 5 5 5 5 5 5 5 5 5 5 5 8 8
WGst -- -- -- -- -- -- -- -- -- -- -- -- -- --

TDA Impact Legend

  None Marginal Slight Moderate High
Visibility (sm) >5 3≤X≤5 1≤X<3 0.5≤X<1 <0.5
Ceiling (100 ft) >30 10≤X≤30 4≤X<10 2≤X<4 <2
Wind Speed (kt) <15 15≤X<25 25≤X<30 ≥30
Wind Gust (kt) <15 15≤X<25 25≤X<35 ≥35
Weather No Wx Reported VCTS -TS,-FZRA TS,FZRA +TS,+FZRA
TAF
KMIA 172114Z 1721/1824 VRB05KT P6SM VCSH SCT020 SCT080 BKN150
  FM180900 15008KT P6SM VCTS SCT020CB BKN050 BKN100
  FM181400 16011KT P6SM VCTS SCT020CB BKN035 BKN060


METAR
KMIA 172053Z 33003KT 10SM FEW023 FEW075 BKN180 OVC250 26/23 A3005 RMK AO2 LTG DSNT N-E RAB15E31 TSE15B16 SLP176 TS MOV NE CB DSNT NE-SE MOV NE P0001 60004 T02560228 58003
KMIA 172038Z 01004KT 10SM FEW023 SCT075 BKN160 OVC250 26/23 A3005 RMK AO2 LTG DSNT N-SE RAB15E31 TSE15B16 OCNL LTGIC DSNT NE TS MOV NE CB DSNT NW-NE-E MOV NE P0001 T02560228
KMIA 172030Z 33005KT 10SM VCTS -RA FEW022 SCT075 BKN160 OVC250 26/23 A3005 RMK AO2 LTG DSNT ALQDS RAB15 TSE15B16 OCNL LTGIC DSNT NE TS MOV NE CB DSNT NW-NE-E MOV NE P0001 T02560228
KMIA 171953Z 00000KT 10SM TS SCT022CB BKN027 OVC080 25/22 A3006 RMK AO2 LTG DSNT NW RAB17E38 TSE19B37 SLP180 OCNL LTGICCG VC NW-NE TS VC NW-NE MOV NE P0003 T02500222
KMIA 171939Z 35006KT 10SM TS SCT020CB BKN027 OVC080 26/22 A3006 RMK AO2 RAB17E38 TSE19B37 OCNL LTGICCG VC NW-NE TS VC NW-NE MOV NE P0003 T02560222
KMIA 171924Z 22008KT 4SM R09/3000VP6000FT VCTS RA BKN020CB BKN035 OVC065 26/22 A3005 RMK AO2 LTG DSNT W AND NW RAB17 TSE19 CB OHD AND ALQDS MOV NE P0002 T02610222
KMIA 171853Z 09003KT 10SM SCT018 SCT045 BKN110 OVC150 29/24 A3005 RMK AO2 LTG DSNT W RAB30E52 SLP176 CB DSNT SW-NW MOV NE P0000 T02890244

Radar Display
Forecast Discussion